createdAt,value
2018-12-20T00:01:34.684Z,3.14
2018-12-20T00:12:35.518Z,3.13
2018-12-20T00:23:35.038Z,3.13
2018-12-20T00:34:33.862Z,3.13
2018-12-20T00:45:34.958Z,3.13
2018-12-20T00:56:40.374Z,3.12
2018-12-20T01:07:42.878Z,3.12
2018-12-20T01:18:44.915Z,3.12
2018-12-20T01:29:43.737Z,3.12
2018-12-20T01:40:45.251Z,3.11
2018-12-20T01:51:44.657Z,3.11
2018-12-20T02:02:47.719Z,3.11
2018-12-20T02:13:48.085Z,3.11
2018-12-20T02:24:51.364Z,3.10
2018-12-20T02:35:55.614Z,3.10
2018-12-20T02:46:55.767Z,3.10
2018-12-20T02:57:56.472Z,3.10
2018-12-20T03:09:00.051Z,3.10
2018-12-20T03:20:04.331Z,3.09
2018-12-20T03:31:03.874Z,3.09
2018-12-20T03:42:04.974Z,3.09
2018-12-20T03:53:08.652Z,3.09
2018-12-20T04:04:10.424Z,3.08
2018-12-20T04:15:13.438Z,3.08
2018-12-20T04:26:12.224Z,3.08
2018-12-20T04:37:13.559Z,3.08
2018-12-20T04:48:13.266Z,3.07
2018-12-20T04:59:12.574Z,3.07
2018-12-20T05:10:16.963Z,3.07
2018-12-20T05:21:20.814Z,3.07
2018-12-20T05:32:19.518Z,3.07
2018-12-20T05:43:21.390Z,3.06
2018-12-20T05:54:26.394Z,3.06
2018-12-20T06:05:27.791Z,3.06
2018-12-20T06:16:32.350Z,3.06
2018-12-20T06:27:35.511Z,3.06
2018-12-20T06:38:38.325Z,3.06
2018-12-20T06:49:39.998Z,3.06
2018-12-20T07:00:43.998Z,3.06
2018-12-20T07:11:46.469Z,3.06
2018-12-20T07:22:47.188Z,3.05
2018-12-20T07:33:48.793Z,3.05
2018-12-20T07:44:50.089Z,3.05
2018-12-20T07:55:50.996Z,3.06
2018-12-20T08:06:50.476Z,3.06
2018-12-20T08:17:54.882Z,3.06
2018-12-20T08:28:59.974Z,3.06
2018-12-20T08:40:03.951Z,3.07
2018-12-20T08:51:08.661Z,3.09
2018-12-20T09:02:08.944Z,3.10
2018-12-20T09:13:14.780Z,3.12
2018-12-20T09:24:20.255Z,3.14
2018-12-20T09:35:24.900Z,3.17
2018-12-20T09:46:30.290Z,3.19
2018-12-20T09:57:34.586Z,3.21
2018-12-20T10:08:34.926Z,3.22
2018-12-20T10:19:37.070Z,3.23
2018-12-20T10:30:39.539Z,3.23
2018-12-20T10:41:43.915Z,3.25
2018-12-20T10:52:44.425Z,3.27
2018-12-20T11:03:41.500Z,3.28
2018-12-20T11:14:45.860Z,3.33
2018-12-20T11:25:47.933Z,3.34
2018-12-20T11:36:48.006Z,3.38
2018-12-20T11:47:51.458Z,3.40
2018-12-20T11:58:54.769Z,3.39
2018-12-20T12:09:58.402Z,3.40
2018-12-20T12:20:57.009Z,3.41
2018-12-20T12:31:58.276Z,3.36
2018-12-20T12:42:58.535Z,3.36
2018-12-20T12:53:58.840Z,3.37
2018-12-20T13:05:01.749Z,3.36
2018-12-20T13:16:05.094Z,3.35
2018-12-20T13:27:07.938Z,3.36
2018-12-20T13:38:06.889Z,3.36
2018-12-20T13:49:06.186Z,3.40
2018-12-20T14:00:08.484Z,3.39
2018-12-20T14:10:58.053Z,3.38
2018-12-20T14:21:56.148Z,3.37
2018-12-20T14:32:57.308Z,3.35
2018-12-20T14:43:55.317Z,3.34
2018-12-20T14:54:52.206Z,3.32
2018-12-20T15:05:53.636Z,3.31
2018-12-20T15:16:54.782Z,3.30
2018-12-20T15:27:57.569Z,3.30
2018-12-20T15:38:54.479Z,3.29
2018-12-20T15:49:55.760Z,3.28
2018-12-20T16:00:55.647Z,3.28
2018-12-20T16:11:55.579Z,3.27
2018-12-20T16:22:56.683Z,3.27
2018-12-20T16:33:56.282Z,3.26
2018-12-20T16:44:59.076Z,3.26
2018-12-20T16:55:36.286Z,3.25
2018-12-20T17:06:35.346Z,3.25
2018-12-20T17:17:38.033Z,3.25
2018-12-20T17:28:41.266Z,3.25
2018-12-20T17:39:38.828Z,3.24
2018-12-20T17:50:36.823Z,3.23
2018-12-20T18:01:37.022Z,3.23
2018-12-20T18:12:41.692Z,3.23
2018-12-20T18:23:44.797Z,3.23
2018-12-20T18:34:49.490Z,3.22
2018-12-20T18:45:52.496Z,3.22
2018-12-20T18:56:52.763Z,3.22
2018-12-20T19:07:57.440Z,3.22
2018-12-20T19:19:01.611Z,3.21
2018-12-20T19:30:05.596Z,3.21
2018-12-20T19:41:05.411Z,3.21
2018-12-20T19:52:09.025Z,3.21
2018-12-20T20:03:13.390Z,3.20
2018-12-20T20:14:17.695Z,3.20
2018-12-20T20:25:21.975Z,3.19
2018-12-20T20:36:26.012Z,3.19
2018-12-20T20:47:23.477Z,3.19
2018-12-20T20:58:21.216Z,3.18
2018-12-20T21:09:20.186Z,3.18
2018-12-20T21:20:30.503Z,3.18
2018-12-20T21:31:28.070Z,3.17
2018-12-20T21:42:32.373Z,3.17
2018-12-20T21:53:32.207Z,3.17
2018-12-20T22:04:31.309Z,3.16
2018-12-20T22:15:30.527Z,3.15
2018-12-20T22:26:35.203Z,3.15
2018-12-20T22:37:33.628Z,3.15
2018-12-20T22:48:31.681Z,3.15
2018-12-20T22:59:36.467Z,3.15
2018-12-20T23:10:39.773Z,3.14
2018-12-20T23:21:44.416Z,3.14
2018-12-20T23:32:47.451Z,3.14
2018-12-20T23:43:50.399Z,3.14
2018-12-20T23:54:55.066Z,3.14
